sensor_id;sensor_type;location;lat;lon;timestamp;P1;durP1;ratioP1;P2;durP2;ratioP2
2123;SDS011;1068;52.460;13.528;2023-11-21T00:01:55;6.17;;;5.57;;
2123;SDS011;1068;52.460;13.528;2023-11-21T00:04:22;6.17;;;5.57;;
2123;SDS011;1068;52.460;13.528;2023-11-21T00:06:49;5.43;;;5.00;;
2123;SDS011;1068;52.460;13.528;2023-11-21T00:09:17;6.17;;;5.23;;
2123;SDS011;1068;52.460;13.528;2023-11-21T00:11:44;8.80;;;5.70;;
2123;SDS011;1068;52.460;13.528;2023-11-21T00:14:11;6.23;;;5.47;;
2123;SDS011;1068;52.460;13.528;2023-11-21T00:16:40;6.63;;;6.00;;
2123;SDS011;1068;52.460;13.528;2023-11-21T00:19:07;6.30;;;5.70;;
2123;SDS011;1068;52.460;13.528;2023-11-21T00:21:34;6.40;;;5.50;;
2123;SDS011;1068;52.460;13.528;2023-11-21T00:24:01;7.60;;;6.33;;
2123;SDS011;1068;52.460;13.528;2023-11-21T00:26:29;5.73;;;5.23;;
2123;SDS011;1068;52.460;13.528;2023-11-21T00:29:01;8.00;;;5.83;;
2123;SDS011;1068;52.460;13.528;2023-11-21T00:31:28;7.03;;;6.33;;
2123;SDS011;1068;52.460;13.528;2023-11-21T00:33:55;8.80;;;6.57;;
2123;SDS011;1068;52.460;13.528;2023-11-21T00:36:22;6.60;;;5.60;;
2123;SDS011;1068;52.460;13.528;2023-11-21T00:38:50;8.57;;;6.53;;
2123;SDS011;1068;52.460;13.528;2023-11-21T00:41:17;7.73;;;6.33;;
2123;SDS011;1068;52.460;13.528;2023-11-21T00:43:45;9.20;;;6.57;;
2123;SDS011;1068;52.460;13.528;2023-11-21T00:46:12;7.70;;;6.90;;
2123;SDS011;1068;52.460;13.528;2023-11-21T00:48:39;8.47;;;6.73;;
2123;SDS011;1068;52.460;13.528;2023-11-21T00:51:06;7.93;;;7.13;;
2123;SDS011;1068;52.460;13.528;2023-11-21T00:53:33;9.73;;;7.43;;
2123;SDS011;1068;52.460;13.528;2023-11-21T00:56:00;11.80;;;7.83;;
2123;SDS011;1068;52.460;13.528;2023-11-21T00:58:27;9.30;;;8.23;;
2123;SDS011;1068;52.460;13.528;2023-11-21T01:00:56;16.97;;;9.07;;
2123;SDS011;1068;52.460;13.528;2023-11-21T01:03:23;15.70;;;9.67;;
2123;SDS011;1068;52.460;13.528;2023-11-21T01:05:50;13.60;;;9.87;;
2123;SDS011;1068;52.460;13.528;2023-11-21T01:08:17;17.30;;;12.00;;
2123;SDS011;1068;52.460;13.528;2023-11-21T01:10:45;16.00;;;11.87;;
2123;SDS011;1068;52.460;13.528;2023-11-21T01:13:11;22.07;;;12.57;;
2123;SDS011;1068;52.460;13.528;2023-11-21T01:15:40;25.07;;;12.80;;
2123;SDS011;1068;52.460;13.528;2023-11-21T01:18:08;23.37;;;14.37;;
2123;SDS011;1068;52.460;13.528;2023-11-21T01:20:35;24.60;;;14.57;;
2123;SDS011;1068;52.460;13.528;2023-11-21T01:23:02;21.23;;;13.70;;
2123;SDS011;1068;52.460;13.528;2023-11-21T01:25:29;22.20;;;14.07;;
2123;SDS011;1068;52.460;13.528;2023-11-21T01:27:56;31.53;;;15.57;;
2123;SDS011;1068;52.460;13.528;2023-11-21T01:30:23;27.50;;;17.10;;
2123;SDS011;1068;52.460;13.528;2023-11-21T01:32:50;23.67;;;15.67;;
2123;SDS011;1068;52.460;13.528;2023-11-21T01:35:18;28.37;;;15.27;;
2123;SDS011;1068;52.460;13.528;2023-11-21T01:37:45;30.40;;;14.77;;
2123;SDS011;1068;52.460;13.528;2023-11-21T01:40:13;28.37;;;15.40;;
2123;SDS011;1068;52.460;13.528;2023-11-21T01:42:40;29.17;;;16.67;;
2123;SDS011;1068;52.460;13.528;2023-11-21T01:45:08;34.33;;;16.43;;
2123;SDS011;1068;52.460;13.528;2023-11-21T01:47:37;31.80;;;17.50;;
2123;SDS011;1068;52.460;13.528;2023-11-21T01:50:05;31.03;;;17.77;;
2123;SDS011;1068;52.460;13.528;2023-11-21T01:52:34;27.80;;;17.70;;
2123;SDS011;1068;52.460;13.528;2023-11-21T01:55:02;34.43;;;16.07;;
2123;SDS011;1068;52.460;13.528;2023-11-21T01:57:29;31.63;;;17.23;;
2123;SDS011;1068;52.460;13.528;2023-11-21T01:59:56;27.93;;;15.10;;
2123;SDS011;1068;52.460;13.528;2023-11-21T02:02:25;25.13;;;15.53;;
2123;SDS011;1068;52.460;13.528;2023-11-21T02:04:52;25.10;;;15.10;;
2123;SDS011;1068;52.460;13.528;2023-11-21T02:07:19;25.10;;;15.50;;
2123;SDS011;1068;52.460;13.528;2023-11-21T02:09:49;27.20;;;16.10;;
2123;SDS011;1068;52.460;13.528;2023-11-21T02:12:16;24.33;;;14.37;;
2123;SDS011;1068;52.460;13.528;2023-11-21T02:14:43;24.43;;;14.60;;
2123;SDS011;1068;52.460;13.528;2023-11-21T02:17:10;23.13;;;14.07;;
2123;SDS011;1068;52.460;13.528;2023-11-21T02:19:38;20.37;;;13.90;;
2123;SDS011;1068;52.460;13.528;2023-11-21T02:22:05;28.50;;;14.50;;
2123;SDS011;1068;52.460;13.528;2023-11-21T02:24:33;23.83;;;13.53;;
2123;SDS011;1068;52.460;13.528;2023-11-21T02:27:01;21.87;;;13.40;;
2123;SDS011;1068;52.460;13.528;2023-11-21T02:29:28;18.70;;;12.63;;
2123;SDS011;1068;52.460;13.528;2023-11-21T02:31:55;20.50;;;12.33;;
2123;SDS011;1068;52.460;13.528;2023-11-21T02:34:23;18.10;;;11.60;;
2123;SDS011;1068;52.460;13.528;2023-11-21T02:36:50;20.03;;;11.50;;
2123;SDS011;1068;52.460;13.528;2023-11-21T02:39:17;16.70;;;11.70;;
2123;SDS011;1068;52.460;13.528;2023-11-21T02:41:48;24.57;;;12.40;;
2123;SDS011;1068;52.460;13.528;2023-11-21T02:44:15;19.87;;;11.23;;
2123;SDS011;1068;52.460;13.528;2023-11-21T02:46:42;19.90;;;11.00;;
2123;SDS011;1068;52.460;13.528;2023-11-21T02:49:09;21.27;;;12.60;;
2123;SDS011;1068;52.460;13.528;2023-11-21T02:51:37;23.37;;;11.47;;
2123;SDS011;1068;52.460;13.528;2023-11-21T02:54:04;20.67;;;12.00;;
2123;SDS011;1068;52.460;13.528;2023-11-21T02:56:33;21.00;;;11.97;;
2123;SDS011;1068;52.460;13.528;2023-11-21T02:59:01;23.83;;;13.17;;
2123;SDS011;1068;52.460;13.528;2023-11-21T03:01:28;22.47;;;12.73;;
2123;SDS011;1068;52.460;13.528;2023-11-21T03:03:55;20.70;;;12.60;;
2123;SDS011;1068;52.460;13.528;2023-11-21T03:06:22;19.80;;;11.60;;
2123;SDS011;1068;52.460;13.528;2023-11-21T03:08:49;19.83;;;11.47;;
2123;SDS011;1068;52.460;13.528;2023-11-21T03:11:16;21.77;;;11.87;;
2123;SDS011;1068;52.460;13.528;2023-11-21T03:13:43;26.77;;;11.77;;
2123;SDS011;1068;52.460;13.528;2023-11-21T03:16:13;17.70;;;11.10;;
2123;SDS011;1068;52.460;13.528;2023-11-21T03:18:40;19.40;;;11.90;;
2123;SDS011;1068;52.460;13.528;2023-11-21T03:21:07;18.65;;;11.52;;
2123;SDS011;1068;52.460;13.528;2023-11-21T03:23:34;15.87;;;10.20;;
2123;SDS011;1068;52.460;13.528;2023-11-21T03:26:01;16.63;;;10.00;;
2123;SDS011;1068;52.460;13.528;2023-11-21T03:28:28;20.20;;;10.50;;
2123;SDS011;1068;52.460;13.528;2023-11-21T03:30:55;12.33;;;8.03;;
2123;SDS011;1068;52.460;13.528;2023-11-21T03:33:23;12.67;;;9.50;;
2123;SDS011;1068;52.460;13.528;2023-11-21T03:35:50;12.97;;;9.67;;
2123;SDS011;1068;52.460;13.528;2023-11-21T03:38:17;14.20;;;8.90;;
2123;SDS011;1068;52.460;13.528;2023-11-21T03:40:45;14.10;;;9.63;;
2123;SDS011;1068;52.460;13.528;2023-11-21T03:43:12;14.60;;;8.17;;
2123;SDS011;1068;52.460;13.528;2023-11-21T03:45:39;10.97;;;8.17;;
2123;SDS011;1068;52.460;13.528;2023-11-21T03:48:06;11.87;;;8.00;;
2123;SDS011;1068;52.460;13.528;2023-11-21T03:50:35;11.80;;;7.67;;
2123;SDS011;1068;52.460;13.528;2023-11-21T03:53:02;13.25;;;9.13;;
2123;SDS011;1068;52.460;13.528;2023-11-21T03:55:29;9.33;;;7.87;;
2123;SDS011;1068;52.460;13.528;2023-11-21T03:57:56;12.20;;;7.73;;
2123;SDS011;1068;52.460;13.528;2023-11-21T04:00:23;9.02;;;7.47;;
2123;SDS011;1068;52.460;13.528;2023-11-21T04:02:51;10.20;;;7.65;;
2123;SDS011;1068;52.460;13.528;2023-11-21T04:05:19;9.30;;;7.60;;
2123;SDS011;1068;52.460;13.528;2023-11-21T04:07:48;8.60;;;6.83;;
2123;SDS011;1068;52.460;13.528;2023-11-21T04:10:15;9.60;;;7.70;;
2123;SDS011;1068;52.460;13.528;2023-11-21T04:12:43;9.57;;;6.80;;
2123;SDS011;1068;52.460;13.528;2023-11-21T04:15:10;11.30;;;7.20;;
2123;SDS011;1068;52.460;13.528;2023-11-21T04:17:38;7.90;;;6.77;;
2123;SDS011;1068;52.460;13.528;2023-11-21T04:20:05;8.10;;;6.63;;
2123;SDS011;1068;52.460;13.528;2023-11-21T04:22:33;8.40;;;6.63;;
2123;SDS011;1068;52.460;13.528;2023-11-21T04:25:02;7.67;;;6.87;;
2123;SDS011;1068;52.460;13.528;2023-11-21T04:27:29;8.40;;;6.83;;
2123;SDS011;1068;52.460;13.528;2023-11-21T04:29:56;6.93;;;5.60;;
2123;SDS011;1068;52.460;13.528;2023-11-21T04:32:22;7.30;;;5.97;;
2123;SDS011;1068;52.460;13.528;2023-11-21T04:34:49;8.47;;;6.17;;
2123;SDS011;1068;52.460;13.528;2023-11-21T04:37:16;8.37;;;6.77;;
2123;SDS011;1068;52.460;13.528;2023-11-21T04:39:43;6.87;;;6.20;;
2123;SDS011;1068;52.460;13.528;2023-11-21T04:42:12;7.80;;;6.03;;
2123;SDS011;1068;52.460;13.528;2023-11-21T04:44:38;6.93;;;6.13;;
2123;SDS011;1068;52.460;13.528;2023-11-21T04:47:06;6.70;;;5.63;;
2123;SDS011;1068;52.460;13.528;2023-11-21T04:49:33;6.60;;;6.00;;
2123;SDS011;1068;52.460;13.528;2023-11-21T04:52:00;7.77;;;6.10;;
2123;SDS011;1068;52.460;13.528;2023-11-21T04:54:28;7.13;;;5.50;;
2123;SDS011;1068;52.460;13.528;2023-11-21T04:56:55;6.13;;;5.50;;
2123;SDS011;1068;52.460;13.528;2023-11-21T04:59:23;4.93;;;4.40;;
2123;SDS011;1068;52.460;13.528;2023-11-21T05:01:52;6.40;;;5.43;;
2123;SDS011;1068;52.460;13.528;2023-11-21T05:04:18;6.10;;;4.73;;
2123;SDS011;1068;52.460;13.528;2023-11-21T05:06:47;5.47;;;4.90;;
2123;SDS011;1068;52.460;13.528;2023-11-21T05:09:14;5.33;;;4.83;;
2123;SDS011;1068;52.460;13.528;2023-11-21T05:11:41;6.35;;;5.10;;
2123;SDS011;1068;52.460;13.528;2023-11-21T05:14:08;4.97;;;4.20;;
2123;SDS011;1068;52.460;13.528;2023-11-21T05:16:36;4.40;;;4.00;;
2123;SDS011;1068;52.460;13.528;2023-11-21T05:19:03;5.82;;;4.43;;
2123;SDS011;1068;52.460;13.528;2023-11-21T05:21:31;4.37;;;4.07;;
2123;SDS011;1068;52.460;13.528;2023-11-21T05:23:58;5.33;;;4.30;;
2123;SDS011;1068;52.460;13.528;2023-11-21T05:26:25;7.33;;;5.00;;
2123;SDS011;1068;52.460;13.528;2023-11-21T05:28:52;5.10;;;4.20;;
2123;SDS011;1068;52.460;13.528;2023-11-21T05:31:19;5.63;;;4.80;;
2123;SDS011;1068;52.460;13.528;2023-11-21T05:33:47;4.43;;;4.03;;
2123;SDS011;1068;52.460;13.528;2023-11-21T05:36:14;4.35;;;3.95;;
2123;SDS011;1068;52.460;13.528;2023-11-21T05:38:41;4.93;;;4.07;;
2123;SDS011;1068;52.460;13.528;2023-11-21T05:41:08;5.43;;;4.43;;
2123;SDS011;1068;52.460;13.528;2023-11-21T05:43:38;5.27;;;3.90;;
2123;SDS011;1068;52.460;13.528;2023-11-21T05:46:05;5.70;;;4.25;;
2123;SDS011;1068;52.460;13.528;2023-11-21T05:48:33;4.27;;;3.93;;
2123;SDS011;1068;52.460;13.528;2023-11-21T05:51:03;5.30;;;4.43;;
2123;SDS011;1068;52.460;13.528;2023-11-21T05:53:30;5.63;;;4.28;;
2123;SDS011;1068;52.460;13.528;2023-11-21T05:55:57;5.20;;;4.70;;
2123;SDS011;1068;52.460;13.528;2023-11-21T05:58:24;4.70;;;4.30;;
2123;SDS011;1068;52.460;13.528;2023-11-21T06:00:51;4.72;;;4.32;;
2123;SDS011;1068;52.460;13.528;2023-11-21T06:03:18;6.72;;;5.40;;
2123;SDS011;1068;52.460;13.528;2023-11-21T06:05:45;5.35;;;4.82;;
2123;SDS011;1068;52.460;13.528;2023-11-21T06:08:13;5.93;;;4.53;;
2123;SDS011;1068;52.460;13.528;2023-11-21T06:10:41;4.80;;;4.40;;
2123;SDS011;1068;52.460;13.528;2023-11-21T06:13:08;4.97;;;4.47;;
2123;SDS011;1068;52.460;13.528;2023-11-21T06:15:36;5.00;;;4.23;;
2123;SDS011;1068;52.460;13.528;2023-11-21T06:18:03;5.33;;;4.83;;
2123;SDS011;1068;52.460;13.528;2023-11-21T06:20:34;6.63;;;5.47;;
2123;SDS011;1068;52.460;13.528;2023-11-21T06:23:02;8.95;;;5.68;;
2123;SDS011;1068;52.460;13.528;2023-11-21T06:25:30;6.07;;;4.93;;
2123;SDS011;1068;52.460;13.528;2023-11-21T06:27:58;5.17;;;4.63;;
2123;SDS011;1068;52.460;13.528;2023-11-21T06:30:25;6.27;;;5.27;;
2123;SDS011;1068;52.460;13.528;2023-11-21T06:32:53;6.00;;;5.40;;
2123;SDS011;1068;52.460;13.528;2023-11-21T06:35:21;6.70;;;6.10;;
2123;SDS011;1068;52.460;13.528;2023-11-21T06:37:48;7.07;;;5.17;;
2123;SDS011;1068;52.460;13.528;2023-11-21T06:40:16;6.43;;;5.82;;
2123;SDS011;1068;52.460;13.528;2023-11-21T06:42:45;5.67;;;5.10;;
2123;SDS011;1068;52.460;13.528;2023-11-21T06:45:12;6.43;;;5.77;;
2123;SDS011;1068;52.460;13.528;2023-11-21T06:47:39;6.75;;;5.82;;
2123;SDS011;1068;52.460;13.528;2023-11-21T06:50:07;5.00;;;4.60;;
2123;SDS011;1068;52.460;13.528;2023-11-21T06:52:34;6.27;;;5.00;;
2123;SDS011;1068;52.460;13.528;2023-11-21T06:55:01;7.55;;;6.85;;
2123;SDS011;1068;52.460;13.528;2023-11-21T06:57:28;5.80;;;4.80;;
2123;SDS011;1068;52.460;13.528;2023-11-21T06:59:56;5.78;;;4.50;;
2123;SDS011;1068;52.460;13.528;2023-11-21T07:02:23;5.37;;;4.77;;
2123;SDS011;1068;52.460;13.528;2023-11-21T07:04:50;5.23;;;4.73;;
2123;SDS011;1068;52.460;13.528;2023-11-21T07:07:17;5.50;;;4.73;;
2123;SDS011;1068;52.460;13.528;2023-11-21T07:09:44;5.30;;;4.77;;
2123;SDS011;1068;52.460;13.528;2023-11-21T07:12:12;6.30;;;4.87;;
2123;SDS011;1068;52.460;13.528;2023-11-21T07:14:39;5.83;;;5.20;;
2123;SDS011;1068;52.460;13.528;2023-11-21T07:17:10;9.88;;;4.38;;
2123;SDS011;1068;52.460;13.528;2023-11-21T07:19:37;7.20;;;5.30;;
2123;SDS011;1068;52.460;13.528;2023-11-21T07:22:04;6.20;;;5.00;;
2123;SDS011;1068;52.460;13.528;2023-11-21T07:24:31;6.33;;;4.23;;
2123;SDS011;1068;52.460;13.528;2023-11-21T07:26:58;5.60;;;4.83;;
2123;SDS011;1068;52.460;13.528;2023-11-21T07:29:25;6.72;;;5.07;;
2123;SDS011;1068;52.460;13.528;2023-11-21T07:31:54;6.82;;;4.90;;
2123;SDS011;1068;52.460;13.528;2023-11-21T07:34:22;5.88;;;4.57;;
2123;SDS011;1068;52.460;13.528;2023-11-21T07:36:49;5.90;;;4.80;;
2123;SDS011;1068;52.460;13.528;2023-11-21T07:39:16;6.37;;;4.57;;
2123;SDS011;1068;52.460;13.528;2023-11-21T07:41:44;6.23;;;4.80;;
2123;SDS011;1068;52.460;13.528;2023-11-21T07:44:13;8.47;;;5.30;;
2123;SDS011;1068;52.460;13.528;2023-11-21T07:46:40;8.77;;;6.45;;
2123;SDS011;1068;52.460;13.528;2023-11-21T07:49:07;8.90;;;6.80;;
2123;SDS011;1068;52.460;13.528;2023-11-21T07:51:36;11.20;;;7.05;;
2123;SDS011;1068;52.460;13.528;2023-11-21T07:54:03;7.97;;;6.00;;
2123;SDS011;1068;52.460;13.528;2023-11-21T07:56:31;8.30;;;6.00;;
2123;SDS011;1068;52.460;13.528;2023-11-21T07:58:58;10.00;;;6.55;;
2123;SDS011;1068;52.460;13.528;2023-11-21T08:01:25;11.45;;;6.43;;
2123;SDS011;1068;52.460;13.528;2023-11-21T08:03:52;15.63;;;6.47;;
2123;SDS011;1068;52.460;13.528;2023-11-21T08:06:21;9.90;;;6.82;;
2123;SDS011;1068;52.460;13.528;2023-11-21T08:08:50;13.65;;;7.10;;
2123;SDS011;1068;52.460;13.528;2023-11-21T08:11:17;10.48;;;5.95;;
2123;SDS011;1068;52.460;13.528;2023-11-21T08:13:44;11.18;;;5.63;;
2123;SDS011;1068;52.460;13.528;2023-11-21T08:16:12;8.07;;;6.00;;
2123;SDS011;1068;52.460;13.528;2023-11-21T08:18:38;10.73;;;7.60;;
2123;SDS011;1068;52.460;13.528;2023-11-21T08:21:06;10.13;;;6.50;;
2123;SDS011;1068;52.460;13.528;2023-11-21T08:23:33;13.18;;;6.57;;
2123;SDS011;1068;52.460;13.528;2023-11-21T08:26:01;7.32;;;4.90;;
2123;SDS011;1068;52.460;13.528;2023-11-21T08:28:28;7.78;;;5.85;;
2123;SDS011;1068;52.460;13.528;2023-11-21T08:30:55;8.18;;;5.25;;
2123;SDS011;1068;52.460;13.528;2023-11-21T08:33:22;9.45;;;4.93;;
2123;SDS011;1068;52.460;13.528;2023-11-21T08:35:49;5.97;;;4.30;;
2123;SDS011;1068;52.460;13.528;2023-11-21T08:38:16;6.80;;;4.40;;
2123;SDS011;1068;52.460;13.528;2023-11-21T08:40:43;7.38;;;4.70;;
2123;SDS011;1068;52.460;13.528;2023-11-21T08:43:11;6.40;;;4.45;;
2123;SDS011;1068;52.460;13.528;2023-11-21T08:45:39;5.78;;;4.35;;
2123;SDS011;1068;52.460;13.528;2023-11-21T08:48:06;8.13;;;4.97;;
2123;SDS011;1068;52.460;13.528;2023-11-21T08:50:33;5.65;;;4.57;;
2123;SDS011;1068;52.460;13.528;2023-11-21T08:53:00;7.18;;;4.72;;
2123;SDS011;1068;52.460;13.528;2023-11-21T08:55:27;6.73;;;4.77;;
2123;SDS011;1068;52.460;13.528;2023-11-21T08:57:54;5.95;;;4.38;;
2123;SDS011;1068;52.460;13.528;2023-11-21T09:00:25;5.97;;;3.88;;
2123;SDS011;1068;52.460;13.528;2023-11-21T09:02:52;4.32;;;3.92;;
2123;SDS011;1068;52.460;13.528;2023-11-21T09:05:19;5.10;;;3.70;;
2123;SDS011;1068;52.460;13.528;2023-11-21T09:07:46;4.57;;;4.18;;
2123;SDS011;1068;52.460;13.528;2023-11-21T09:10:13;3.28;;;2.97;;
2123;SDS011;1068;52.460;13.528;2023-11-21T09:12:40;3.67;;;3.38;;
2123;SDS011;1068;52.460;13.528;2023-11-21T09:15:08;3.25;;;2.90;;
2123;SDS011;1068;52.460;13.528;2023-11-21T09:17:38;3.42;;;3.13;;
2123;SDS011;1068;52.460;13.528;2023-11-21T09:20:05;3.40;;;3.10;;
2123;SDS011;1068;52.460;13.528;2023-11-21T09:22:35;3.10;;;2.90;;
2123;SDS011;1068;52.460;13.528;2023-11-21T09:25:01;3.70;;;3.40;;
2123;SDS011;1068;52.460;13.528;2023-11-21T09:27:30;2.72;;;2.50;;
2123;SDS011;1068;52.460;13.528;2023-11-21T09:29:57;2.75;;;2.42;;
2123;SDS011;1068;52.460;13.528;2023-11-21T09:32:24;2.60;;;2.40;;
2123;SDS011;1068;52.460;13.528;2023-11-21T09:34:52;2.55;;;2.35;;
2123;SDS011;1068;52.460;13.528;2023-11-21T09:37:20;2.78;;;2.55;;
2123;SDS011;1068;52.460;13.528;2023-11-21T09:39:47;2.42;;;2.22;;
2123;SDS011;1068;52.460;13.528;2023-11-21T09:42:15;2.60;;;2.40;;
2123;SDS011;1068;52.460;13.528;2023-11-21T09:44:45;3.13;;;2.28;;
2123;SDS011;1068;52.460;13.528;2023-11-21T09:47:14;2.25;;;2.05;;
2123;SDS011;1068;52.460;13.528;2023-11-21T09:49:41;4.72;;;2.97;;
2123;SDS011;1068;52.460;13.528;2023-11-21T09:52:12;2.55;;;2.35;;
2123;SDS011;1068;52.460;13.528;2023-11-21T09:54:42;2.25;;;2.15;;
2123;SDS011;1068;52.460;13.528;2023-11-21T09:57:09;2.72;;;2.53;;
2123;SDS011;1068;52.460;13.528;2023-11-21T09:59:36;2.90;;;2.17;;
2123;SDS011;1068;52.460;13.528;2023-11-21T10:02:03;3.00;;;2.15;;
2123;SDS011;1068;52.460;13.528;2023-11-21T10:04:30;2.40;;;2.20;;
2123;SDS011;1068;52.460;13.528;2023-11-21T10:06:58;2.40;;;2.20;;
2123;SDS011;1068;52.460;13.528;2023-11-21T10:09:26;2.13;;;2.03;;
2123;SDS011;1068;52.460;13.528;2023-11-21T10:11:53;2.17;;;1.98;;
2123;SDS011;1068;52.460;13.528;2023-11-21T10:14:22;2.35;;;2.15;;
2123;SDS011;1068;52.460;13.528;2023-11-21T10:16:53;1.90;;;1.80;;
2123;SDS011;1068;52.460;13.528;2023-11-21T10:19:21;1.92;;;1.83;;
2123;SDS011;1068;52.460;13.528;2023-11-21T10:21:49;4.13;;;2.05;;
2123;SDS011;1068;52.460;13.528;2023-11-21T10:24:17;1.95;;;1.85;;
2123;SDS011;1068;52.460;13.528;2023-11-21T10:26:45;1.67;;;1.58;;
2123;SDS011;1068;52.460;13.528;2023-11-21T10:29:13;1.63;;;1.53;;
2123;SDS011;1068;52.460;13.528;2023-11-21T10:31:43;1.67;;;1.58;;
2123;SDS011;1068;52.460;13.528;2023-11-21T10:34:12;2.38;;;1.42;;
2123;SDS011;1068;52.460;13.528;2023-11-21T10:36:39;1.65;;;1.55;;
2123;SDS011;1068;52.460;13.528;2023-11-21T10:39:06;1.30;;;1.20;;
2123;SDS011;1068;52.460;13.528;2023-11-21T10:41:34;1.48;;;1.38;;
2123;SDS011;1068;52.460;13.528;2023-11-21T10:44:03;1.83;;;1.40;;
2123;SDS011;1068;52.460;13.528;2023-11-21T10:46:32;1.83;;;1.08;;
2123;SDS011;1068;52.460;13.528;2023-11-21T10:48:59;1.30;;;1.20;;
2123;SDS011;1068;52.460;13.528;2023-11-21T10:51:27;1.35;;;1.25;;
2123;SDS011;1068;52.460;13.528;2023-11-21T10:53:53;1.83;;;1.70;;
2123;SDS011;1068;52.460;13.528;2023-11-21T10:56:22;1.67;;;1.42;;
2123;SDS011;1068;52.460;13.528;2023-11-21T10:58:50;2.28;;;1.20;;
2123;SDS011;1068;52.460;13.528;2023-11-21T11:01:19;1.35;;;1.25;;
2123;SDS011;1068;52.460;13.528;2023-11-21T11:03:47;1.17;;;1.08;;
2123;SDS011;1068;52.460;13.528;2023-11-21T11:06:14;1.55;;;1.45;;
2123;SDS011;1068;52.460;13.528;2023-11-21T11:08:41;1.45;;;1.35;;
2123;SDS011;1068;52.460;13.528;2023-11-21T11:11:09;1.52;;;1.42;;
2123;SDS011;1068;52.460;13.528;2023-11-21T11:13:37;1.35;;;1.25;;
2123;SDS011;1068;52.460;13.528;2023-11-21T11:16:04;1.30;;;1.20;;
2123;SDS011;1068;52.460;13.528;2023-11-21T11:18:36;1.80;;;1.38;;
2123;SDS011;1068;52.460;13.528;2023-11-21T11:21:07;1.40;;;1.30;;
2123;SDS011;1068;52.460;13.528;2023-11-21T11:23:41;1.63;;;1.52;;
2123;SDS011;1068;52.460;13.528;2023-11-21T11:26:12;1.20;;;1.10;;
2123;SDS011;1068;52.460;13.528;2023-11-21T11:28:47;1.33;;;1.23;;
2123;SDS011;1068;52.460;13.528;2023-11-21T11:31:15;2.15;;;1.50;;
2123;SDS011;1068;52.460;13.528;2023-11-21T11:33:48;1.30;;;1.20;;
2123;SDS011;1068;52.460;13.528;2023-11-21T11:36:18;1.45;;;1.20;;
2123;SDS011;1068;52.460;13.528;2023-11-21T11:38:48;1.38;;;1.27;;
2123;SDS011;1068;52.460;13.528;2023-11-21T11:41:23;1.50;;;1.40;;
2123;SDS011;1068;52.460;13.528;2023-11-21T11:43:50;1.42;;;1.33;;
2123;SDS011;1068;52.460;13.528;2023-11-21T11:46:18;2.28;;;2.00;;
2123;SDS011;1068;52.460;13.528;2023-11-21T11:48:48;2.65;;;1.50;;
2123;SDS011;1068;52.460;13.528;2023-11-21T11:51:15;1.67;;;1.50;;
2123;SDS011;1068;52.460;13.528;2023-11-21T11:53:44;1.65;;;1.55;;
2123;SDS011;1068;52.460;13.528;2023-11-21T11:56:19;2.53;;;1.87;;
2123;SDS011;1068;52.460;13.528;2023-11-21T11:58:47;1.50;;;1.40;;
2123;SDS011;1068;52.460;13.528;2023-11-21T12:01:16;1.58;;;1.23;;
2123;SDS011;1068;52.460;13.528;2023-11-21T12:03:43;3.13;;;1.15;;
2123;SDS011;1068;52.460;13.528;2023-11-21T12:06:13;1.65;;;1.38;;
2123;SDS011;1068;52.460;13.528;2023-11-21T12:08:40;1.52;;;1.42;;
2123;SDS011;1068;52.460;13.528;2023-11-21T12:11:09;1.77;;;1.40;;
2123;SDS011;1068;52.460;13.528;2023-11-21T12:13:39;1.20;;;1.10;;
2123;SDS011;1068;52.460;13.528;2023-11-21T12:16:06;1.20;;;1.13;;
2123;SDS011;1068;52.460;13.528;2023-11-21T12:18:33;1.77;;;1.40;;
2123;SDS011;1068;52.460;13.528;2023-11-21T12:21:00;2.35;;;1.60;;
2123;SDS011;1068;52.460;13.528;2023-11-21T12:23:29;1.65;;;1.23;;
2123;SDS011;1068;52.460;13.528;2023-11-21T12:25:57;3.20;;;1.52;;
2123;SDS011;1068;52.460;13.528;2023-11-21T12:28:24;1.55;;;1.45;;
2123;SDS011;1068;52.460;13.528;2023-11-21T12:30:51;2.85;;;2.30;;
2123;SDS011;1068;52.460;13.528;2023-11-21T12:33:18;2.50;;;1.88;;
2123;SDS011;1068;52.460;13.528;2023-11-21T12:35:45;1.70;;;1.60;;
2123;SDS011;1068;52.460;13.528;2023-11-21T12:38:12;1.27;;;1.17;;
2123;SDS011;1068;52.460;13.528;2023-11-21T12:40:40;1.60;;;1.50;;
2123;SDS011;1068;52.460;13.528;2023-11-21T12:43:07;1.30;;;1.20;;
2123;SDS011;1068;52.460;13.528;2023-11-21T12:45:34;1.58;;;1.48;;
2123;SDS011;1068;52.460;13.528;2023-11-21T12:48:04;1.52;;;1.42;;
2123;SDS011;1068;52.460;13.528;2023-11-21T12:50:33;1.65;;;1.55;;
2123;SDS011;1068;52.460;13.528;2023-11-21T12:53:02;1.80;;;1.70;;
2123;SDS011;1068;52.460;13.528;2023-11-21T12:55:30;1.85;;;1.75;;
2123;SDS011;1068;52.460;13.528;2023-11-21T12:58:00;2.42;;;2.25;;
2123;SDS011;1068;52.460;13.528;2023-11-21T13:00:34;4.70;;;2.10;;
2123;SDS011;1068;52.460;13.528;2023-11-21T13:03:02;2.50;;;2.30;;
2123;SDS011;1068;52.460;13.528;2023-11-21T13:05:30;3.90;;;3.17;;
2123;SDS011;1068;52.460;13.528;2023-11-21T13:07:58;5.10;;;3.42;;
2123;SDS011;1068;52.460;13.528;2023-11-21T13:10:27;3.10;;;2.90;;
2123;SDS011;1068;52.460;13.528;2023-11-21T13:12:56;4.40;;;4.00;;
2123;SDS011;1068;52.460;13.528;2023-11-21T13:15:26;5.43;;;4.32;;
2123;SDS011;1068;52.460;13.528;2023-11-21T13:17:54;6.10;;;4.15;;
2123;SDS011;1068;52.460;13.528;2023-11-21T13:20:22;3.90;;;3.55;;
2123;SDS011;1068;52.460;13.528;2023-11-21T13:22:49;4.25;;;3.95;;
2123;SDS011;1068;52.460;13.528;2023-11-21T13:25:18;4.70;;;4.30;;
2123;SDS011;1068;52.460;13.528;2023-11-21T13:27:45;4.35;;;3.97;;
2123;SDS011;1068;52.460;13.528;2023-11-21T13:30:13;4.22;;;3.92;;
2123;SDS011;1068;52.460;13.528;2023-11-21T13:32:42;5.82;;;4.40;;
2123;SDS011;1068;52.460;13.528;2023-11-21T13:35:11;5.53;;;4.32;;
2123;SDS011;1068;52.460;13.528;2023-11-21T13:37:46;4.00;;;3.70;;
2123;SDS011;1068;52.460;13.528;2023-11-21T13:40:14;3.55;;;3.25;;
2123;SDS011;1068;52.460;13.528;2023-11-21T13:42:47;3.85;;;3.55;;
2123;SDS011;1068;52.460;13.528;2023-11-21T13:45:14;3.42;;;3.10;;
2123;SDS011;1068;52.460;13.528;2023-11-21T13:47:44;3.33;;;3.05;;
2123;SDS011;1068;52.460;13.528;2023-11-21T13:50:11;4.28;;;3.90;;
2123;SDS011;1068;52.460;13.528;2023-11-21T13:52:42;3.90;;;3.08;;
2123;SDS011;1068;52.460;13.528;2023-11-21T13:55:10;5.47;;;4.10;;
2123;SDS011;1068;52.460;13.528;2023-11-21T13:57:40;3.95;;;3.65;;
2123;SDS011;1068;52.460;13.528;2023-11-21T14:00:10;4.15;;;3.72;;
2123;SDS011;1068;52.460;13.528;2023-11-21T14:02:58;4.05;;;3.58;;
2123;SDS011;1068;52.460;13.528;2023-11-21T14:05:26;3.65;;;3.35;;
2123;SDS011;1068;52.460;13.528;2023-11-21T14:07:54;4.60;;;4.20;;
2123;SDS011;1068;52.460;13.528;2023-11-21T14:10:27;4.43;;;4.13;;
2123;SDS011;1068;52.460;13.528;2023-11-21T14:13:02;5.05;;;4.65;;
2123;SDS011;1068;52.460;13.528;2023-11-21T14:15:29;5.60;;;4.50;;
2123;SDS011;1068;52.460;13.528;2023-11-21T14:17:59;5.20;;;4.70;;
2123;SDS011;1068;52.460;13.528;2023-11-21T14:20:30;4.53;;;4.22;;
2123;SDS011;1068;52.460;13.528;2023-11-21T14:22:58;5.97;;;5.18;;
2123;SDS011;1068;52.460;13.528;2023-11-21T14:25:25;5.68;;;5.28;;
2123;SDS011;1068;52.460;13.528;2023-11-21T14:27:52;5.97;;;5.47;;
2123;SDS011;1068;52.460;13.528;2023-11-21T14:30:21;6.53;;;5.80;;
2123;SDS011;1068;52.460;13.528;2023-11-21T14:32:48;5.97;;;5.45;;
2123;SDS011;1068;52.460;13.528;2023-11-21T14:35:17;6.38;;;5.78;;
2123;SDS011;1068;52.460;13.528;2023-11-21T14:37:44;6.53;;;5.93;;
2123;SDS011;1068;52.460;13.528;2023-11-21T14:40:11;6.53;;;5.80;;
2123;SDS011;1068;52.460;13.528;2023-11-21T14:42:40;7.20;;;6.50;;
2123;SDS011;1068;52.460;13.528;2023-11-21T14:45:08;7.15;;;6.43;;
2123;SDS011;1068;52.460;13.528;2023-11-21T14:47:37;8.30;;;7.50;;
2123;SDS011;1068;52.460;13.528;2023-11-21T14:50:09;7.88;;;7.10;;
2123;SDS011;1068;52.460;13.528;2023-11-21T14:53:05;7.03;;;6.43;;
2123;SDS011;1068;52.460;13.528;2023-11-21T14:55:32;10.45;;;8.63;;
2123;SDS011;1068;52.460;13.528;2023-11-21T14:58:10;12.25;;;9.43;;
2123;SDS011;1068;52.460;13.528;2023-11-21T15:00:40;12.32;;;9.90;;